sensor_id;sensor_type;location;lat;lon;timestamp;P1;durP1;ratioP1;P2;durP2;ratioP2
20525;SDS011;10421;49.142;9.232;2023-07-09T00:01:41;7.90;;;4.67;;
20525;SDS011;10421;49.142;9.232;2023-07-09T00:04:08;10.17;;;5.27;;
20525;SDS011;10421;49.142;9.232;2023-07-09T00:06:36;15.80;;;10.53;;
20525;SDS011;10421;49.142;9.232;2023-07-09T00:09:03;10.80;;;6.27;;
20525;SDS011;10421;49.142;9.232;2023-07-09T00:11:30;11.77;;;8.17;;
20525;SDS011;10421;49.142;9.232;2023-07-09T00:13:58;14.23;;;8.47;;
20525;SDS011;10421;49.142;9.232;2023-07-09T00:16:25;10.43;;;6.20;;
20525;SDS011;10421;49.142;9.232;2023-07-09T00:18:52;8.83;;;5.93;;
20525;SDS011;10421;49.142;9.232;2023-07-09T00:21:20;7.10;;;4.18;;
20525;SDS011;10421;49.142;9.232;2023-07-09T00:23:47;7.63;;;4.50;;
20525;SDS011;10421;49.142;9.232;2023-07-09T00:26:14;7.67;;;4.37;;
20525;SDS011;10421;49.142;9.232;2023-07-09T00:28:43;6.70;;;3.80;;
20525;SDS011;10421;49.142;9.232;2023-07-09T00:31:12;5.30;;;4.00;;
20525;SDS011;10421;49.142;9.232;2023-07-09T00:33:41;8.20;;;3.90;;
20525;SDS011;10421;49.142;9.232;2023-07-09T00:36:10;6.17;;;4.70;;
20525;SDS011;10421;49.142;9.232;2023-07-09T00:38:40;5.83;;;4.23;;
20525;SDS011;10421;49.142;9.232;2023-07-09T00:41:13;8.27;;;5.60;;
20525;SDS011;10421;49.142;9.232;2023-07-09T00:43:44;16.60;;;10.87;;
20525;SDS011;10421;49.142;9.232;2023-07-09T00:49:20;8.33;;;5.90;;
20525;SDS011;10421;49.142;9.232;2023-07-09T00:51:54;8.80;;;4.55;;
20525;SDS011;10421;49.142;9.232;2023-07-09T00:54:26;9.10;;;4.40;;
20525;SDS011;10421;49.142;9.232;2023-07-09T00:56:57;8.23;;;4.20;;
20525;SDS011;10421;49.142;9.232;2023-07-09T00:59:28;6.33;;;4.17;;
20525;SDS011;10421;49.142;9.232;2023-07-09T01:01:57;5.80;;;4.17;;
20525;SDS011;10421;49.142;9.232;2023-07-09T01:04:26;7.17;;;4.90;;
20525;SDS011;10421;49.142;9.232;2023-07-09T01:06:54;7.87;;;4.33;;
20525;SDS011;10421;49.142;9.232;2023-07-09T01:09:22;8.30;;;4.53;;
20525;SDS011;10421;49.142;9.232;2023-07-09T01:11:50;6.90;;;4.10;;
20525;SDS011;10421;49.142;9.232;2023-07-09T01:14:21;6.63;;;4.07;;
20525;SDS011;10421;49.142;9.232;2023-07-09T01:16:52;6.17;;;4.17;;
20525;SDS011;10421;49.142;9.232;2023-07-09T01:19:23;5.60;;;3.23;;
20525;SDS011;10421;49.142;9.232;2023-07-09T01:21:53;5.43;;;3.43;;
20525;SDS011;10421;49.142;9.232;2023-07-09T01:27:14;6.50;;;4.40;;
20525;SDS011;10421;49.142;9.232;2023-07-09T01:29:42;5.60;;;3.70;;
20525;SDS011;10421;49.142;9.232;2023-07-09T01:32:11;4.70;;;3.83;;
20525;SDS011;10421;49.142;9.232;2023-07-09T01:34:39;5.33;;;3.67;;
20525;SDS011;10421;49.142;9.232;2023-07-09T01:37:08;5.65;;;3.83;;
20525;SDS011;10421;49.142;9.232;2023-07-09T01:39:34;4.97;;;3.50;;
20525;SDS011;10421;49.142;9.232;2023-07-09T01:42:02;5.47;;;3.80;;
20525;SDS011;10421;49.142;9.232;2023-07-09T01:44:33;4.50;;;3.80;;
20525;SDS011;10421;49.142;9.232;2023-07-09T01:47:00;5.57;;;4.33;;
20525;SDS011;10421;49.142;9.232;2023-07-09T01:49:29;5.63;;;4.10;;
20525;SDS011;10421;49.142;9.232;2023-07-09T01:51:57;3.83;;;2.97;;
20525;SDS011;10421;49.142;9.232;2023-07-09T01:54:27;5.63;;;4.03;;
20525;SDS011;10421;49.142;9.232;2023-07-09T01:56:54;5.00;;;3.93;;
20525;SDS011;10421;49.142;9.232;2023-07-09T01:59:26;4.13;;;3.58;;
20525;SDS011;10421;49.142;9.232;2023-07-09T02:01:53;7.97;;;4.50;;
20525;SDS011;10421;49.142;9.232;2023-07-09T02:04:22;4.82;;;4.00;;
20525;SDS011;10421;49.142;9.232;2023-07-09T02:06:53;5.43;;;4.00;;
20525;SDS011;10421;49.142;9.232;2023-07-09T02:09:20;4.40;;;3.60;;
20525;SDS011;10421;49.142;9.232;2023-07-09T02:11:48;7.60;;;4.43;;
20525;SDS011;10421;49.142;9.232;2023-07-09T02:14:14;8.60;;;4.60;;
20525;SDS011;10421;49.142;9.232;2023-07-09T02:16:41;8.10;;;4.13;;
20525;SDS011;10421;49.142;9.232;2023-07-09T02:19:08;7.53;;;5.27;;
20525;SDS011;10421;49.142;9.232;2023-07-09T02:21:35;7.73;;;3.83;;
20525;SDS011;10421;49.142;9.232;2023-07-09T02:24:01;5.93;;;4.37;;
20525;SDS011;10421;49.142;9.232;2023-07-09T02:26:29;7.40;;;5.10;;
20525;SDS011;10421;49.142;9.232;2023-07-09T02:28:57;8.30;;;4.43;;
20525;SDS011;10421;49.142;9.232;2023-07-09T02:31:23;6.80;;;4.47;;
20525;SDS011;10421;49.142;9.232;2023-07-09T02:33:50;9.87;;;4.70;;
20525;SDS011;10421;49.142;9.232;2023-07-09T02:36:17;6.13;;;4.03;;
20525;SDS011;10421;49.142;9.232;2023-07-09T02:38:43;8.80;;;4.20;;
20525;SDS011;10421;49.142;9.232;2023-07-09T02:41:10;6.33;;;4.33;;
20525;SDS011;10421;49.142;9.232;2023-07-09T02:43:37;5.83;;;4.23;;
20525;SDS011;10421;49.142;9.232;2023-07-09T02:46:05;7.87;;;3.70;;
20525;SDS011;10421;49.142;9.232;2023-07-09T02:48:31;5.63;;;3.80;;
20525;SDS011;10421;49.142;9.232;2023-07-09T02:50:58;6.15;;;3.88;;
20525;SDS011;10421;49.142;9.232;2023-07-09T02:53:25;6.30;;;4.47;;
20525;SDS011;10421;49.142;9.232;2023-07-09T02:55:53;7.20;;;4.70;;
20525;SDS011;10421;49.142;9.232;2023-07-09T02:58:19;7.17;;;3.93;;
20525;SDS011;10421;49.142;9.232;2023-07-09T03:00:48;7.37;;;4.10;;
20525;SDS011;10421;49.142;9.232;2023-07-09T03:03:19;7.63;;;4.38;;
20525;SDS011;10421;49.142;9.232;2023-07-09T03:05:46;5.03;;;3.60;;
20525;SDS011;10421;49.142;9.232;2023-07-09T03:08:13;4.75;;;3.67;;
20525;SDS011;10421;49.142;9.232;2023-07-09T03:10:40;6.30;;;4.60;;
20525;SDS011;10421;49.142;9.232;2023-07-09T03:13:07;4.83;;;3.73;;
20525;SDS011;10421;49.142;9.232;2023-07-09T03:15:34;6.50;;;3.97;;
20525;SDS011;10421;49.142;9.232;2023-07-09T03:18:00;4.83;;;3.90;;
20525;SDS011;10421;49.142;9.232;2023-07-09T03:20:28;6.23;;;3.97;;
20525;SDS011;10421;49.142;9.232;2023-07-09T03:22:55;6.83;;;4.07;;
20525;SDS011;10421;49.142;9.232;2023-07-09T03:25:22;7.30;;;4.70;;
20525;SDS011;10421;49.142;9.232;2023-07-09T03:27:49;6.33;;;3.90;;
20525;SDS011;10421;49.142;9.232;2023-07-09T03:30:16;7.13;;;4.57;;
20525;SDS011;10421;49.142;9.232;2023-07-09T03:32:42;5.00;;;3.90;;
20525;SDS011;10421;49.142;9.232;2023-07-09T03:35:10;9.30;;;5.03;;
20525;SDS011;10421;49.142;9.232;2023-07-09T03:37:38;5.23;;;3.77;;
20525;SDS011;10421;49.142;9.232;2023-07-09T03:40:05;8.10;;;4.20;;
20525;SDS011;10421;49.142;9.232;2023-07-09T03:42:37;6.93;;;4.67;;
20525;SDS011;10421;49.142;9.232;2023-07-09T03:45:04;5.77;;;4.50;;
20525;SDS011;10421;49.142;9.232;2023-07-09T03:47:31;5.80;;;4.00;;
20525;SDS011;10421;49.142;9.232;2023-07-09T03:49:58;8.43;;;4.50;;
20525;SDS011;10421;49.142;9.232;2023-07-09T03:52:24;7.72;;;3.85;;
20525;SDS011;10421;49.142;9.232;2023-07-09T03:54:54;7.30;;;4.60;;
20525;SDS011;10421;49.142;9.232;2023-07-09T03:57:21;7.23;;;4.60;;
20525;SDS011;10421;49.142;9.232;2023-07-09T03:59:48;5.40;;;4.10;;
20525;SDS011;10421;49.142;9.232;2023-07-09T04:02:14;7.43;;;4.30;;
20525;SDS011;10421;49.142;9.232;2023-07-09T04:04:41;8.20;;;4.80;;
20525;SDS011;10421;49.142;9.232;2023-07-09T04:07:08;6.10;;;4.10;;
20525;SDS011;10421;49.142;9.232;2023-07-09T04:09:34;5.40;;;3.90;;
20525;SDS011;10421;49.142;9.232;2023-07-09T04:12:03;6.70;;;4.73;;
20525;SDS011;10421;49.142;9.232;2023-07-09T04:14:30;7.50;;;4.50;;
20525;SDS011;10421;49.142;9.232;2023-07-09T04:16:57;5.20;;;3.77;;
20525;SDS011;10421;49.142;9.232;2023-07-09T04:19:24;4.80;;;3.90;;
20525;SDS011;10421;49.142;9.232;2023-07-09T04:21:51;5.03;;;3.67;;
20525;SDS011;10421;49.142;9.232;2023-07-09T04:24:18;8.43;;;4.17;;
20525;SDS011;10421;49.142;9.232;2023-07-09T04:26:46;4.80;;;3.93;;
20525;SDS011;10421;49.142;9.232;2023-07-09T04:29:14;10.20;;;4.70;;
20525;SDS011;10421;49.142;9.232;2023-07-09T04:31:41;4.43;;;3.53;;
20525;SDS011;10421;49.142;9.232;2023-07-09T04:34:08;6.00;;;4.27;;
20525;SDS011;10421;49.142;9.232;2023-07-09T04:36:34;6.97;;;3.70;;
20525;SDS011;10421;49.142;9.232;2023-07-09T04:39:01;5.70;;;3.90;;
20525;SDS011;10421;49.142;9.232;2023-07-09T04:41:28;5.17;;;3.67;;
20525;SDS011;10421;49.142;9.232;2023-07-09T04:43:55;4.87;;;3.90;;
20525;SDS011;10421;49.142;9.232;2023-07-09T04:46:23;5.53;;;3.80;;
20525;SDS011;10421;49.142;9.232;2023-07-09T04:48:50;4.50;;;3.37;;
20525;SDS011;10421;49.142;9.232;2023-07-09T04:51:16;5.50;;;3.83;;
20525;SDS011;10421;49.142;9.232;2023-07-09T04:53:43;6.03;;;4.20;;
20525;SDS011;10421;49.142;9.232;2023-07-09T04:56:10;4.73;;;4.00;;
20525;SDS011;10421;49.142;9.232;2023-07-09T04:58:37;6.83;;;3.87;;
20525;SDS011;10421;49.142;9.232;2023-07-09T05:01:04;7.15;;;4.25;;
20525;SDS011;10421;49.142;9.232;2023-07-09T05:03:32;4.30;;;3.90;;
20525;SDS011;10421;49.142;9.232;2023-07-09T05:05:59;5.67;;;3.83;;
20525;SDS011;10421;49.142;9.232;2023-07-09T05:08:25;5.65;;;4.40;;
20525;SDS011;10421;49.142;9.232;2023-07-09T05:10:52;6.20;;;4.43;;
20525;SDS011;10421;49.142;9.232;2023-07-09T05:13:20;6.40;;;4.60;;
20525;SDS011;10421;49.142;9.232;2023-07-09T05:15:47;9.05;;;5.25;;
20525;SDS011;10421;49.142;9.232;2023-07-09T05:18:15;5.65;;;4.70;;
20525;SDS011;10421;49.142;9.232;2023-07-09T05:20:45;7.90;;;5.00;;
20525;SDS011;10421;49.142;9.232;2023-07-09T05:23:13;9.23;;;5.60;;
20525;SDS011;10421;49.142;9.232;2023-07-09T05:25:39;8.43;;;5.13;;
20525;SDS011;10421;49.142;9.232;2023-07-09T05:28:06;7.77;;;5.70;;
20525;SDS011;10421;49.142;9.232;2023-07-09T05:30:33;7.03;;;6.10;;
20525;SDS011;10421;49.142;9.232;2023-07-09T05:33:00;9.50;;;6.20;;
20525;SDS011;10421;49.142;9.232;2023-07-09T05:35:26;8.57;;;5.38;;
20525;SDS011;10421;49.142;9.232;2023-07-09T05:37:55;8.10;;;6.10;;
20525;SDS011;10421;49.142;9.232;2023-07-09T05:40:22;8.57;;;6.00;;
20525;SDS011;10421;49.142;9.232;2023-07-09T05:42:49;6.70;;;5.80;;
20525;SDS011;10421;49.142;9.232;2023-07-09T05:45:16;9.43;;;7.30;;
20525;SDS011;10421;49.142;9.232;2023-07-09T05:47:42;8.93;;;6.17;;
20525;SDS011;10421;49.142;9.232;2023-07-09T05:50:09;9.87;;;6.80;;
20525;SDS011;10421;49.142;9.232;2023-07-09T05:52:36;12.77;;;7.00;;
20525;SDS011;10421;49.142;9.232;2023-07-09T05:55:05;9.07;;;5.90;;
20525;SDS011;10421;49.142;9.232;2023-07-09T05:57:32;8.47;;;5.80;;
20525;SDS011;10421;49.142;9.232;2023-07-09T05:59:59;9.50;;;6.10;;
20525;SDS011;10421;49.142;9.232;2023-07-09T06:02:25;8.10;;;5.90;;
20525;SDS011;10421;49.142;9.232;2023-07-09T06:04:52;8.13;;;6.17;;
20525;SDS011;10421;49.142;9.232;2023-07-09T06:07:19;8.33;;;6.17;;
20525;SDS011;10421;49.142;9.232;2023-07-09T06:09:47;7.00;;;5.47;;
20525;SDS011;10421;49.142;9.232;2023-07-09T06:12:15;9.52;;;5.97;;
20525;SDS011;10421;49.142;9.232;2023-07-09T06:14:44;10.27;;;6.73;;
20525;SDS011;10421;49.142;9.232;2023-07-09T06:17:11;8.80;;;6.20;;
20525;SDS011;10421;49.142;9.232;2023-07-09T06:19:38;13.63;;;6.30;;
20525;SDS011;10421;49.142;9.232;2023-07-09T06:22:05;9.10;;;6.50;;
20525;SDS011;10421;49.142;9.232;2023-07-09T06:24:32;9.07;;;5.80;;
20525;SDS011;10421;49.142;9.232;2023-07-09T06:26:58;9.23;;;6.17;;
20525;SDS011;10421;49.142;9.232;2023-07-09T06:29:26;10.00;;;6.50;;
20525;SDS011;10421;49.142;9.232;2023-07-09T06:31:53;8.63;;;5.77;;
20525;SDS011;10421;49.142;9.232;2023-07-09T06:34:20;8.10;;;5.77;;
20525;SDS011;10421;49.142;9.232;2023-07-09T06:36:47;9.00;;;6.65;;
20525;SDS011;10421;49.142;9.232;2023-07-09T06:39:13;8.80;;;5.87;;
20525;SDS011;10421;49.142;9.232;2023-07-09T06:41:41;7.55;;;5.68;;
20525;SDS011;10421;49.142;9.232;2023-07-09T06:44:08;7.53;;;5.68;;
20525;SDS011;10421;49.142;9.232;2023-07-09T06:46:37;10.05;;;6.40;;
20525;SDS011;10421;49.142;9.232;2023-07-09T06:49:04;7.60;;;5.17;;
20525;SDS011;10421;49.142;9.232;2023-07-09T06:51:31;8.47;;;6.07;;
20525;SDS011;10421;49.142;9.232;2023-07-09T06:53:58;8.20;;;5.53;;
20525;SDS011;10421;49.142;9.232;2023-07-09T06:56:25;11.33;;;5.40;;
20525;SDS011;10421;49.142;9.232;2023-07-09T06:58:52;9.87;;;6.33;;
20525;SDS011;10421;49.142;9.232;2023-07-09T07:01:18;7.63;;;5.60;;
20525;SDS011;10421;49.142;9.232;2023-07-09T07:03:46;8.47;;;5.70;;
20525;SDS011;10421;49.142;9.232;2023-07-09T07:06:13;8.25;;;5.45;;
20525;SDS011;10421;49.142;9.232;2023-07-09T07:08:41;7.78;;;5.72;;
20525;SDS011;10421;49.142;9.232;2023-07-09T07:11:08;7.60;;;6.00;;
20525;SDS011;10421;49.142;9.232;2023-07-09T07:13:35;11.30;;;5.50;;
20525;SDS011;10421;49.142;9.232;2023-07-09T07:16:03;8.17;;;6.03;;
20525;SDS011;10421;49.142;9.232;2023-07-09T07:18:32;8.70;;;6.03;;
20525;SDS011;10421;49.142;9.232;2023-07-09T07:21:00;6.70;;;5.10;;
20525;SDS011;10421;49.142;9.232;2023-07-09T07:23:28;8.40;;;5.50;;
20525;SDS011;10421;49.142;9.232;2023-07-09T07:25:55;9.30;;;5.60;;
20525;SDS011;10421;49.142;9.232;2023-07-09T07:28:22;7.80;;;5.80;;
20525;SDS011;10421;49.142;9.232;2023-07-09T07:30:57;9.87;;;6.57;;
20525;SDS011;10421;49.142;9.232;2023-07-09T07:33:25;6.37;;;5.17;;
20525;SDS011;10421;49.142;9.232;2023-07-09T07:35:51;8.50;;;5.70;;
20525;SDS011;10421;49.142;9.232;2023-07-09T07:38:19;7.07;;;5.37;;
20525;SDS011;10421;49.142;9.232;2023-07-09T07:40:46;7.77;;;5.77;;
20525;SDS011;10421;49.142;9.232;2023-07-09T07:43:13;6.70;;;5.07;;
20525;SDS011;10421;49.142;9.232;2023-07-09T07:45:40;6.40;;;5.43;;
20525;SDS011;10421;49.142;9.232;2023-07-09T07:48:07;6.83;;;5.10;;
20525;SDS011;10421;49.142;9.232;2023-07-09T07:50:34;8.87;;;4.93;;
20525;SDS011;10421;49.142;9.232;2023-07-09T07:53:01;7.57;;;5.30;;
20525;SDS011;10421;49.142;9.232;2023-07-09T07:55:29;8.70;;;5.67;;
20525;SDS011;10421;49.142;9.232;2023-07-09T07:57:56;6.20;;;5.10;;
20525;SDS011;10421;49.142;9.232;2023-07-09T08:00:22;10.97;;;5.87;;
20525;SDS011;10421;49.142;9.232;2023-07-09T08:02:49;8.50;;;5.40;;
20525;SDS011;10421;49.142;9.232;2023-07-09T08:05:16;6.47;;;5.80;;
20525;SDS011;10421;49.142;9.232;2023-07-09T08:07:43;8.20;;;5.70;;
20525;SDS011;10421;49.142;9.232;2023-07-09T08:10:10;6.80;;;5.10;;
20525;SDS011;10421;49.142;9.232;2023-07-09T08:12:39;8.70;;;5.60;;
20525;SDS011;10421;49.142;9.232;2023-07-09T08:15:06;6.65;;;5.13;;
20525;SDS011;10421;49.142;9.232;2023-07-09T08:17:34;5.13;;;4.53;;
20525;SDS011;10421;49.142;9.232;2023-07-09T08:20:00;6.87;;;4.57;;
20525;SDS011;10421;49.142;9.232;2023-07-09T08:22:27;5.80;;;4.80;;
20525;SDS011;10421;49.142;9.232;2023-07-09T08:24:54;5.60;;;4.80;;
20525;SDS011;10421;49.142;9.232;2023-07-09T08:27:20;6.60;;;4.47;;
20525;SDS011;10421;49.142;9.232;2023-07-09T08:29:48;5.23;;;4.60;;
20525;SDS011;10421;49.142;9.232;2023-07-09T08:32:15;6.63;;;4.57;;
20525;SDS011;10421;49.142;9.232;2023-07-09T08:34:42;8.57;;;5.20;;
20525;SDS011;10421;49.142;9.232;2023-07-09T08:37:09;7.03;;;5.70;;
20525;SDS011;10421;49.142;9.232;2023-07-09T08:39:35;7.10;;;5.17;;
20525;SDS011;10421;49.142;9.232;2023-07-09T08:42:03;6.17;;;4.57;;
20525;SDS011;10421;49.142;9.232;2023-07-09T08:44:44;11.13;;;7.87;;
20525;SDS011;10421;49.142;9.232;2023-07-09T08:47:37;31.63;;;24.83;;
20525;SDS011;10421;49.142;9.232;2023-07-09T08:50:14;21.90;;;13.47;;
20525;SDS011;10421;49.142;9.232;2023-07-09T08:52:43;17.30;;;13.50;;
20525;SDS011;10421;49.142;9.232;2023-07-09T08:55:11;6.93;;;5.77;;
20525;SDS011;10421;49.142;9.232;2023-07-09T08:57:45;6.27;;;5.67;;
20525;SDS011;10421;49.142;9.232;2023-07-09T09:00:17;8.43;;;5.60;;
20525;SDS011;10421;49.142;9.232;2023-07-09T09:02:49;6.50;;;5.23;;
20525;SDS011;10421;49.142;9.232;2023-07-09T09:05:19;9.20;;;4.93;;
20525;SDS011;10421;49.142;9.232;2023-07-09T09:07:48;5.60;;;5.00;;
20525;SDS011;10421;49.142;9.232;2023-07-09T09:10:21;5.83;;;5.10;;
20525;SDS011;10421;49.142;9.232;2023-07-09T09:13:02;7.47;;;4.87;;
20525;SDS011;10421;49.142;9.232;2023-07-09T09:15:38;5.57;;;4.67;;
20525;SDS011;10421;49.142;9.232;2023-07-09T09:18:20;18.70;;;14.57;;
20525;SDS011;10421;49.142;9.232;2023-07-09T09:20:52;32.50;;;26.07;;
20525;SDS011;10421;49.142;9.232;2023-07-09T09:23:22;18.07;;;14.30;;
20525;SDS011;10421;49.142;9.232;2023-07-09T09:25:56;12.47;;;8.40;;
20525;SDS011;10421;49.142;9.232;2023-07-09T09:28:27;22.13;;;18.17;;
20525;SDS011;10421;49.142;9.232;2023-07-09T09:30:55;22.80;;;18.97;;
20525;SDS011;10421;49.142;9.232;2023-07-09T09:33:22;10.73;;;9.50;;
20525;SDS011;10421;49.142;9.232;2023-07-09T09:35:48;8.40;;;6.83;;
20525;SDS011;10421;49.142;9.232;2023-07-09T09:38:16;8.98;;;5.22;;
20525;SDS011;10421;49.142;9.232;2023-07-09T09:40:45;6.35;;;5.60;;
20525;SDS011;10421;49.142;9.232;2023-07-09T09:43:13;4.77;;;4.23;;
20525;SDS011;10421;49.142;9.232;2023-07-09T09:45:43;6.30;;;4.40;;
20525;SDS011;10421;49.142;9.232;2023-07-09T09:51:11;4.50;;;4.10;;
20525;SDS011;10421;49.142;9.232;2023-07-09T09:53:45;5.83;;;5.00;;
20525;SDS011;10421;49.142;9.232;2023-07-09T09:56:19;6.20;;;4.40;;
20525;SDS011;10421;49.142;9.232;2023-07-09T09:58:57;5.20;;;3.87;;
20525;SDS011;10421;49.142;9.232;2023-07-09T10:01:32;4.33;;;3.93;;
20525;SDS011;10421;49.142;9.232;2023-07-09T10:04:05;7.13;;;4.33;;
20525;SDS011;10421;49.142;9.232;2023-07-09T10:06:38;4.83;;;4.33;;
20525;SDS011;10421;49.142;9.232;2023-07-09T10:09:36;7.10;;;4.20;;
20525;SDS011;10421;49.142;9.232;2023-07-09T10:12:20;4.77;;;4.20;;
20525;SDS011;10421;49.142;9.232;2023-07-09T10:15:04;5.20;;;3.80;;
20525;SDS011;10421;49.142;9.232;2023-07-09T10:17:42;5.73;;;3.70;;
20525;SDS011;10421;49.142;9.232;2023-07-09T10:20:25;4.03;;;3.17;;
20525;SDS011;10421;49.142;9.232;2023-07-09T10:23:14;4.90;;;3.57;;
20525;SDS011;10421;49.142;9.232;2023-07-09T10:26:03;5.90;;;3.58;;
20525;SDS011;10421;49.142;9.232;2023-07-09T10:28:45;5.97;;;3.80;;
20525;SDS011;10421;49.142;9.232;2023-07-09T10:31:35;4.40;;;3.07;;
20525;SDS011;10421;49.142;9.232;2023-07-09T10:34:20;4.83;;;3.43;;
20525;SDS011;10421;49.142;9.232;2023-07-09T10:37:04;3.97;;;3.27;;
20525;SDS011;10421;49.142;9.232;2023-07-09T10:39:47;4.00;;;3.60;;
20525;SDS011;10421;49.142;9.232;2023-07-09T10:42:17;5.13;;;3.40;;
20525;SDS011;10421;49.142;9.232;2023-07-09T10:44:53;3.57;;;3.27;;
20525;SDS011;10421;49.142;9.232;2023-07-09T10:47:25;3.90;;;3.47;;
20525;SDS011;10421;49.142;9.232;2023-07-09T10:49:56;3.77;;;2.73;;
20525;SDS011;10421;49.142;9.232;2023-07-09T10:52:27;4.13;;;2.70;;
20525;SDS011;10421;49.142;9.232;2023-07-09T10:54:57;3.60;;;2.83;;
20525;SDS011;10421;49.142;9.232;2023-07-09T10:57:29;6.23;;;4.20;;
20525;SDS011;10421;49.142;9.232;2023-07-09T11:00:00;3.20;;;2.90;;
20525;SDS011;10421;49.142;9.232;2023-07-09T11:02:29;5.30;;;3.43;;
20525;SDS011;10421;49.142;9.232;2023-07-09T11:04:59;5.40;;;3.40;;
20525;SDS011;10421;49.142;9.232;2023-07-09T11:07:29;3.70;;;2.80;;
20525;SDS011;10421;49.142;9.232;2023-07-09T11:09:59;7.07;;;3.50;;
20525;SDS011;10421;49.142;9.232;2023-07-09T11:12:29;4.32;;;3.40;;
20525;SDS011;10421;49.142;9.232;2023-07-09T11:15:00;4.83;;;3.07;;
20525;SDS011;10421;49.142;9.232;2023-07-09T11:17:30;3.70;;;3.00;;
20525;SDS011;10421;49.142;9.232;2023-07-09T11:19:58;4.20;;;3.40;;
20525;SDS011;10421;49.142;9.232;2023-07-09T11:22:27;4.20;;;3.30;;
20525;SDS011;10421;49.142;9.232;2023-07-09T11:25:05;5.80;;;3.10;;
20525;SDS011;10421;49.142;9.232;2023-07-09T11:27:34;3.87;;;3.23;;
20525;SDS011;10421;49.142;9.232;2023-07-09T11:30:19;4.20;;;3.17;;
20525;SDS011;10421;49.142;9.232;2023-07-09T11:32:51;5.10;;;3.53;;
20525;SDS011;10421;49.142;9.232;2023-07-09T11:35:20;5.60;;;3.88;;
20525;SDS011;10421;49.142;9.232;2023-07-09T11:37:50;5.90;;;3.53;;
20525;SDS011;10421;49.142;9.232;2023-07-09T11:40:19;5.00;;;3.30;;
20525;SDS011;10421;49.142;9.232;2023-07-09T11:42:50;5.63;;;3.10;;
20525;SDS011;10421;49.142;9.232;2023-07-09T11:45:19;4.80;;;3.20;;
20525;SDS011;10421;49.142;9.232;2023-07-09T11:47:51;6.10;;;3.57;;
20525;SDS011;10421;49.142;9.232;2023-07-09T11:50:22;4.87;;;3.50;;
20525;SDS011;10421;49.142;9.232;2023-07-09T11:52:55;4.60;;;3.50;;
20525;SDS011;10421;49.142;9.232;2023-07-09T11:55:28;3.53;;;3.00;;
20525;SDS011;10421;49.142;9.232;2023-07-09T11:57:58;5.40;;;3.38;;
20525;SDS011;10421;49.142;9.232;2023-07-09T12:00:27;4.93;;;3.27;;
20525;SDS011;10421;49.142;9.232;2023-07-09T12:02:56;6.93;;;3.58;;
20525;SDS011;10421;49.142;9.232;2023-07-09T12:05:25;4.57;;;3.70;;
20525;SDS011;10421;49.142;9.232;2023-07-09T12:07:55;7.97;;;3.78;;
20525;SDS011;10421;49.142;9.232;2023-07-09T12:10:25;4.53;;;3.85;;
20525;SDS011;10421;49.142;9.232;2023-07-09T12:12:54;5.90;;;3.37;;
20525;SDS011;10421;49.142;9.232;2023-07-09T12:15:22;6.70;;;4.17;;
20525;SDS011;10421;49.142;9.232;2023-07-09T12:17:57;4.20;;;3.50;;
20525;SDS011;10421;49.142;9.232;2023-07-09T12:20:29;9.60;;;3.73;;
20525;SDS011;10421;49.142;9.232;2023-07-09T12:22:59;4.70;;;3.73;;
20525;SDS011;10421;49.142;9.232;2023-07-09T12:25:27;6.70;;;4.23;;
20525;SDS011;10421;49.142;9.232;2023-07-09T12:27:57;5.03;;;3.60;;
20525;SDS011;10421;49.142;9.232;2023-07-09T12:30:24;8.43;;;2.90;;
20525;SDS011;10421;49.142;9.232;2023-07-09T12:32:51;6.63;;;3.90;;
20525;SDS011;10421;49.142;9.232;2023-07-09T12:35:18;6.53;;;3.10;;
20525;SDS011;10421;49.142;9.232;2023-07-09T12:37:46;5.97;;;4.13;;
20525;SDS011;10421;49.142;9.232;2023-07-09T12:40:18;3.90;;;3.27;;
20525;SDS011;10421;49.142;9.232;2023-07-09T12:42:48;5.33;;;3.63;;
20525;SDS011;10421;49.142;9.232;2023-07-09T12:45:15;4.77;;;3.37;;
20525;SDS011;10421;49.142;9.232;2023-07-09T12:47:44;4.13;;;3.13;;
20525;SDS011;10421;49.142;9.232;2023-07-09T12:50:17;7.00;;;3.40;;
20525;SDS011;10421;49.142;9.232;2023-07-09T12:52:55;3.90;;;3.40;;
20525;SDS011;10421;49.142;9.232;2023-07-09T12:55:28;4.03;;;3.50;;
20525;SDS011;10421;49.142;9.232;2023-07-09T12:57:56;4.17;;;3.60;;
20525;SDS011;10421;49.142;9.232;2023-07-09T13:00:26;4.60;;;3.87;;
20525;SDS011;10421;49.142;9.232;2023-07-09T13:02:57;9.00;;;3.10;;
20525;SDS011;10421;49.142;9.232;2023-07-09T13:05:25;6.10;;;3.90;;
20525;SDS011;10421;49.142;9.232;2023-07-09T13:07:53;4.68;;;3.10;;
20525;SDS011;10421;49.142;9.232;2023-07-09T13:10:25;4.55;;;3.28;;
20525;SDS011;10421;49.142;9.232;2023-07-09T13:12:55;7.80;;;4.88;;
20525;SDS011;10421;49.142;9.232;2023-07-09T13:15:26;6.85;;;5.05;;
20525;SDS011;10421;49.142;9.232;2023-07-09T13:17:58;4.03;;;3.03;;
20525;SDS011;10421;49.142;9.232;2023-07-09T13:20:26;6.83;;;4.10;;
20525;SDS011;10421;49.142;9.232;2023-07-09T13:22:53;4.18;;;3.78;;
20525;SDS011;10421;49.142;9.232;2023-07-09T13:25:20;3.43;;;3.13;;
20525;SDS011;10421;49.142;9.232;2023-07-09T13:27:48;5.10;;;3.53;;
20525;SDS011;10421;49.142;9.232;2023-07-09T13:30:15;4.57;;;3.40;;
20525;SDS011;10421;49.142;9.232;2023-07-09T13:32:43;5.03;;;3.43;;
20525;SDS011;10421;49.142;9.232;2023-07-09T13:35:14;3.40;;;3.03;;
20525;SDS011;10421;49.142;9.232;2023-07-09T13:37:42;4.30;;;3.10;;
20525;SDS011;10421;49.142;9.232;2023-07-09T13:40:10;4.57;;;3.30;;
20525;SDS011;10421;49.142;9.232;2023-07-09T13:42:39;4.23;;;3.27;;
20525;SDS011;10421;49.142;9.232;2023-07-09T13:45:16;8.30;;;3.53;;
20525;SDS011;10421;49.142;9.232;2023-07-09T13:47:45;4.37;;;3.20;;
20525;SDS011;10421;49.142;9.232;2023-07-09T13:50:13;6.53;;;3.50;;
20525;SDS011;10421;49.142;9.232;2023-07-09T13:52:41;5.30;;;3.37;;
20525;SDS011;10421;49.142;9.232;2023-07-09T13:55:14;4.90;;;3.57;;
20525;SDS011;10421;49.142;9.232;2023-07-09T13:57:43;6.50;;;3.23;;
20525;SDS011;10421;49.142;9.232;2023-07-09T14:00:10;3.90;;;3.07;;
20525;SDS011;10421;49.142;9.232;2023-07-09T14:02:39;2.50;;;2.30;;
20525;SDS011;10421;49.142;9.232;2023-07-09T14:05:08;5.00;;;3.50;;
20525;SDS011;10421;49.142;9.232;2023-07-09T14:07:36;5.73;;;3.90;;
20525;SDS011;10421;49.142;9.232;2023-07-09T14:10:06;5.90;;;3.30;;
20525;SDS011;10421;49.142;9.232;2023-07-09T14:12:37;4.27;;;3.57;;
20525;SDS011;10421;49.142;9.232;2023-07-09T14:15:09;5.50;;;4.10;;
20525;SDS011;10421;49.142;9.232;2023-07-09T14:17:40;6.07;;;3.00;;
20525;SDS011;10421;49.142;9.232;2023-07-09T14:20:09;5.22;;;3.60;;
20525;SDS011;10421;49.142;9.232;2023-07-09T14:22:37;3.40;;;2.87;;
20525;SDS011;10421;49.142;9.232;2023-07-09T14:25:05;4.73;;;2.93;;
20525;SDS011;10421;49.142;9.232;2023-07-09T14:27:33;5.63;;;3.60;;
20525;SDS011;10421;49.142;9.232;2023-07-09T14:29:59;5.00;;;3.83;;
20525;SDS011;10421;49.142;9.232;2023-07-09T14:32:33;6.10;;;3.70;;
20525;SDS011;10421;49.142;9.232;2023-07-09T14:35:03;6.50;;;3.37;;
20525;SDS011;10421;49.142;9.232;2023-07-09T14:37:36;10.93;;;3.47;;
20525;SDS011;10421;49.142;9.232;2023-07-09T14:40:03;5.87;;;3.77;;
20525;SDS011;10421;49.142;9.232;2023-07-09T14:42:30;5.50;;;3.53;;
20525;SDS011;10421;49.142;9.232;2023-07-09T14:44:57;5.40;;;3.40;;
20525;SDS011;10421;49.142;9.232;2023-07-09T14:47:24;7.20;;;3.50;;
20525;SDS011;10421;49.142;9.232;2023-07-09T14:49:53;4.70;;;3.67;;
20525;SDS011;10421;49.142;9.232;2023-07-09T14:52:21;4.47;;;3.27;;
20525;SDS011;10421;49.142;9.232;2023-07-09T14:54:50;3.80;;;3.30;;
20525;SDS011;10421;49.142;9.232;2023-07-09T14:57:18;5.20;;;3.07;;
20525;SDS011;10421;49.142;9.232;2023-07-09T14:59:49;6.60;;;3.50;;
20525;SDS011;10421;49.142;9.232;2023-07-09T15:02:23;3.67;;;2.95;;
20525;SDS011;10421;49.142;9.232;2023-07-09T15:04:56;3.43;;;3.13;;
20525;SDS011;10421;49.142;9.232;2023-07-09T15:07:24;5.50;;;4.37;;